Mosul, Iraq
Current Conditions -  °F | °C
As of 1:00 PM on Friday 31 Oct 2014 (Local Time) from ORER Reporting Station
Rain Showers Rain Showers  
Wind Chill: 59°   Ceiling: 8000
Heat Index: 59°   Visibility: 4mi
Dew Point: 59°   Wind: 9mph
Humidity: 100%   Direction: 350°N
Pressure: 29.85"   Gusts: NA
Location:  36.34°N, 43.14°E
Report Text: ORER 311000Z 35008KT 6000 SHRA SCT030 BKN080 15/15 Q1011
Loading
Personal Weather Stations






























Interactive Weather Map
Tropical Storm Tracking
New forecast layout! Learn more

10-Day Weather Forecast

Advertisements
Track Severe Weather on mobile